sensor_id;sensor_type;location;lat;lon;timestamp;temperature;humidity
29721;DHT22;23665;51.044;3.748;2022-11-20T00:00:08;5.30;99.90
29721;DHT22;23665;51.044;3.748;2022-11-20T00:02:34;5.20;99.90
29721;DHT22;23665;51.044;3.748;2022-11-20T00:04:59;5.40;99.90
29721;DHT22;23665;51.044;3.748;2022-11-20T00:07:25;5.30;99.90
29721;DHT22;23665;51.044;3.748;2022-11-20T00:09:51;5.50;99.90
29721;DHT22;23665;51.044;3.748;2022-11-20T00:12:16;5.40;99.90
29721;DHT22;23665;51.044;3.748;2022-11-20T00:14:42;5.40;99.90
29721;DHT22;23665;51.044;3.748;2022-11-20T00:17:07;5.40;99.90
29721;DHT22;23665;51.044;3.748;2022-11-20T00:19:33;5.40;99.90
29721;DHT22;23665;51.044;3.748;2022-11-20T00:21:59;5.40;99.90
29721;DHT22;23665;51.044;3.748;2022-11-20T00:24:24;5.30;99.90
29721;DHT22;23665;51.044;3.748;2022-11-20T00:26:50;5.40;99.90
29721;DHT22;23665;51.044;3.748;2022-11-20T00:29:16;5.30;99.90
29721;DHT22;23665;51.044;3.748;2022-11-20T00:31:41;5.30;99.90
29721;DHT22;23665;51.044;3.748;2022-11-20T00:34:08;5.40;99.90
29721;DHT22;23665;51.044;3.748;2022-11-20T00:36:34;5.60;99.90
29721;DHT22;23665;51.044;3.748;2022-11-20T00:39:00;5.70;99.90
29721;DHT22;23665;51.044;3.748;2022-11-20T00:41:27;5.70;99.90
29721;DHT22;23665;51.044;3.748;2022-11-20T00:43:54;5.70;99.90
29721;DHT22;23665;51.044;3.748;2022-11-20T00:46:22;5.80;99.90
29721;DHT22;23665;51.044;3.748;2022-11-20T00:48:48;5.90;99.90
29721;DHT22;23665;51.044;3.748;2022-11-20T00:51:16;6.10;99.90
29721;DHT22;23665;51.044;3.748;2022-11-20T00:53:44;5.80;99.90
29721;DHT22;23665;51.044;3.748;2022-11-20T00:56:11;5.60;99.90
29721;DHT22;23665;51.044;3.748;2022-11-20T00:58:39;5.60;99.90
29721;DHT22;23665;51.044;3.748;2022-11-20T01:03:36;6.00;99.90
29721;DHT22;23665;51.044;3.748;2022-11-20T01:06:04;6.00;99.90
29721;DHT22;23665;51.044;3.748;2022-11-20T01:08:32;6.10;99.90
29721;DHT22;23665;51.044;3.748;2022-11-20T01:11:00;5.80;99.90
29721;DHT22;23665;51.044;3.748;2022-11-20T01:13:27;5.70;99.90
29721;DHT22;23665;51.044;3.748;2022-11-20T01:16:10;5.60;99.90
29721;DHT22;23665;51.044;3.748;2022-11-20T01:18:37;5.70;99.90
29721;DHT22;23665;51.044;3.748;2022-11-20T01:21:06;5.70;99.90
29721;DHT22;23665;51.044;3.748;2022-11-20T01:23:36;6.00;99.90
29721;DHT22;23665;51.044;3.748;2022-11-20T01:26:05;6.10;99.90
29721;DHT22;23665;51.044;3.748;2022-11-20T01:28:31;5.90;99.90
29721;DHT22;23665;51.044;3.748;2022-11-20T01:30:57;5.80;99.90
29721;DHT22;23665;51.044;3.748;2022-11-20T01:33:23;5.70;99.90
29721;DHT22;23665;51.044;3.748;2022-11-20T01:35:49;5.50;99.90
29721;DHT22;23665;51.044;3.748;2022-11-20T01:38:16;5.80;99.90
29721;DHT22;23665;51.044;3.748;2022-11-20T01:40:42;5.90;99.90
29721;DHT22;23665;51.044;3.748;2022-11-20T01:43:14;6.10;99.90
29721;DHT22;23665;51.044;3.748;2022-11-20T01:51:23;6.20;99.90
29721;DHT22;23665;51.044;3.748;2022-11-20T01:53:53;6.30;99.90
29721;DHT22;23665;51.044;3.748;2022-11-20T01:56:19;6.20;99.90
29721;DHT22;23665;51.044;3.748;2022-11-20T01:58:51;6.30;99.90
29721;DHT22;23665;51.044;3.748;2022-11-20T02:01:19;6.50;99.90
29721;DHT22;23665;51.044;3.748;2022-11-20T02:03:46;6.10;99.90
29721;DHT22;23665;51.044;3.748;2022-11-20T02:08:40;6.00;99.90
29721;DHT22;23665;51.044;3.748;2022-11-20T02:11:06;6.20;99.90
29721;DHT22;23665;51.044;3.748;2022-11-20T02:13:33;6.10;99.90
29721;DHT22;23665;51.044;3.748;2022-11-20T02:16:11;5.70;99.90
29721;DHT22;23665;51.044;3.748;2022-11-20T02:18:39;5.70;99.90
29721;DHT22;23665;51.044;3.748;2022-11-20T02:21:27;5.60;99.90
29721;DHT22;23665;51.044;3.748;2022-11-20T02:24:12;5.70;99.90
29721;DHT22;23665;51.044;3.748;2022-11-20T02:27:31;5.70;99.90
29721;DHT22;23665;51.044;3.748;2022-11-20T02:30:00;5.60;99.90
29721;DHT22;23665;51.044;3.748;2022-11-20T02:32:30;5.50;99.90
29721;DHT22;23665;51.044;3.748;2022-11-20T02:34:57;5.70;99.90
29721;DHT22;23665;51.044;3.748;2022-11-20T02:37:23;5.80;99.90
29721;DHT22;23665;51.044;3.748;2022-11-20T02:39:53;5.90;99.90
29721;DHT22;23665;51.044;3.748;2022-11-20T02:42:19;6.00;99.90
29721;DHT22;23665;51.044;3.748;2022-11-20T02:44:44;6.00;99.90
29721;DHT22;23665;51.044;3.748;2022-11-20T02:47:10;6.20;99.90
29721;DHT22;23665;51.044;3.748;2022-11-20T02:49:36;6.10;99.90
29721;DHT22;23665;51.044;3.748;2022-11-20T02:52:02;6.30;99.90
29721;DHT22;23665;51.044;3.748;2022-11-20T02:54:27;6.30;99.90
29721;DHT22;23665;51.044;3.748;2022-11-20T02:56:53;6.50;99.90
29721;DHT22;23665;51.044;3.748;2022-11-20T02:59:19;6.30;99.90
29721;DHT22;23665;51.044;3.748;2022-11-20T03:01:44;6.30;99.90
29721;DHT22;23665;51.044;3.748;2022-11-20T03:04:10;6.30;99.90
29721;DHT22;23665;51.044;3.748;2022-11-20T03:06:36;6.10;99.90
29721;DHT22;23665;51.044;3.748;2022-11-20T03:09:02;5.90;99.90
29721;DHT22;23665;51.044;3.748;2022-11-20T03:11:28;5.90;99.90
29721;DHT22;23665;51.044;3.748;2022-11-20T03:13:54;6.00;99.90
29721;DHT22;23665;51.044;3.748;2022-11-20T03:16:21;6.00;99.90
29721;DHT22;23665;51.044;3.748;2022-11-20T03:18:47;6.20;99.90
29721;DHT22;23665;51.044;3.748;2022-11-20T03:21:14;6.40;99.90
29721;DHT22;23665;51.044;3.748;2022-11-20T03:23:40;6.50;99.90
29721;DHT22;23665;51.044;3.748;2022-11-20T03:28:41;6.70;99.90
29721;DHT22;23665;51.044;3.748;2022-11-20T03:31:09;6.80;99.90
29721;DHT22;23665;51.044;3.748;2022-11-20T03:33:35;6.80;99.90
29721;DHT22;23665;51.044;3.748;2022-11-20T03:36:05;6.80;99.90
29721;DHT22;23665;51.044;3.748;2022-11-20T03:38:32;6.80;99.90
29721;DHT22;23665;51.044;3.748;2022-11-20T03:40:59;6.60;99.90
29721;DHT22;23665;51.044;3.748;2022-11-20T03:43:25;6.50;99.90
29721;DHT22;23665;51.044;3.748;2022-11-20T03:45:51;6.50;99.90
29721;DHT22;23665;51.044;3.748;2022-11-20T03:48:17;6.20;99.90
29721;DHT22;23665;51.044;3.748;2022-11-20T03:50:42;6.20;99.90
29721;DHT22;23665;51.044;3.748;2022-11-20T03:53:08;6.10;99.90
29721;DHT22;23665;51.044;3.748;2022-11-20T03:55:34;6.30;99.90
29721;DHT22;23665;51.044;3.748;2022-11-20T03:57:59;6.40;99.90
29721;DHT22;23665;51.044;3.748;2022-11-20T04:00:25;6.40;99.90
29721;DHT22;23665;51.044;3.748;2022-11-20T04:02:50;6.60;99.90
29721;DHT22;23665;51.044;3.748;2022-11-20T04:05:16;6.50;99.90
29721;DHT22;23665;51.044;3.748;2022-11-20T04:07:42;6.60;99.90
29721;DHT22;23665;51.044;3.748;2022-11-20T04:10:07;6.60;99.90
29721;DHT22;23665;51.044;3.748;2022-11-20T04:12:33;6.50;99.90
29721;DHT22;23665;51.044;3.748;2022-11-20T04:14:59;6.60;99.90
29721;DHT22;23665;51.044;3.748;2022-11-20T04:17:24;6.50;99.90
29721;DHT22;23665;51.044;3.748;2022-11-20T04:19:50;6.60;99.90
29721;DHT22;23665;51.044;3.748;2022-11-20T04:22:16;6.80;99.90
29721;DHT22;23665;51.044;3.748;2022-11-20T04:24:41;6.80;99.90
29721;DHT22;23665;51.044;3.748;2022-11-20T04:27:07;6.80;99.90
29721;DHT22;23665;51.044;3.748;2022-11-20T04:29:33;6.90;99.90
29721;DHT22;23665;51.044;3.748;2022-11-20T04:31:58;6.90;99.90
29721;DHT22;23665;51.044;3.748;2022-11-20T04:34:24;6.90;99.90
29721;DHT22;23665;51.044;3.748;2022-11-20T04:36:50;6.70;99.90
29721;DHT22;23665;51.044;3.748;2022-11-20T04:39:15;6.80;99.90
29721;DHT22;23665;51.044;3.748;2022-11-20T04:41:42;6.60;99.90
29721;DHT22;23665;51.044;3.748;2022-11-20T04:44:08;6.60;99.90
29721;DHT22;23665;51.044;3.748;2022-11-20T04:46:41;6.30;99.90
29721;DHT22;23665;51.044;3.748;2022-11-20T04:49:07;6.10;99.90
29721;DHT22;23665;51.044;3.748;2022-11-20T04:51:34;6.30;99.90
29721;DHT22;23665;51.044;3.748;2022-11-20T04:54:00;6.30;99.90
29721;DHT22;23665;51.044;3.748;2022-11-20T04:56:26;6.40;99.90
29721;DHT22;23665;51.044;3.748;2022-11-20T04:58:51;6.40;99.90
29721;DHT22;23665;51.044;3.748;2022-11-20T05:01:19;6.50;99.90
29721;DHT22;23665;51.044;3.748;2022-11-20T05:03:46;6.60;99.90
29721;DHT22;23665;51.044;3.748;2022-11-20T05:06:13;6.50;99.90
29721;DHT22;23665;51.044;3.748;2022-11-20T05:08:40;6.30;99.90
29721;DHT22;23665;51.044;3.748;2022-11-20T05:11:11;6.30;99.90
29721;DHT22;23665;51.044;3.748;2022-11-20T05:13:38;6.60;99.90
29721;DHT22;23665;51.044;3.748;2022-11-20T05:16:10;6.80;99.90
29721;DHT22;23665;51.044;3.748;2022-11-20T05:18:37;6.80;99.90
29721;DHT22;23665;51.044;3.748;2022-11-20T05:21:03;6.60;99.90
29721;DHT22;23665;51.044;3.748;2022-11-20T05:23:30;6.60;99.90
29721;DHT22;23665;51.044;3.748;2022-11-20T05:25:56;6.70;99.90
29721;DHT22;23665;51.044;3.748;2022-11-20T05:28:23;6.70;99.90
29721;DHT22;23665;51.044;3.748;2022-11-20T05:30:49;6.70;99.90
29721;DHT22;23665;51.044;3.748;2022-11-20T05:33:15;6.80;99.90
29721;DHT22;23665;51.044;3.748;2022-11-20T05:35:41;6.90;99.90
29721;DHT22;23665;51.044;3.748;2022-11-20T05:38:06;6.90;99.90
29721;DHT22;23665;51.044;3.748;2022-11-20T05:40:32;6.90;99.90
29721;DHT22;23665;51.044;3.748;2022-11-20T05:42:58;6.80;99.90
29721;DHT22;23665;51.044;3.748;2022-11-20T05:45:24;6.80;99.90
29721;DHT22;23665;51.044;3.748;2022-11-20T05:47:50;6.80;99.90
29721;DHT22;23665;51.044;3.748;2022-11-20T05:50:16;6.70;99.90
29721;DHT22;23665;51.044;3.748;2022-11-20T05:52:41;6.80;99.90
29721;DHT22;23665;51.044;3.748;2022-11-20T05:55:07;7.00;99.90
29721;DHT22;23665;51.044;3.748;2022-11-20T05:57:33;7.00;99.90
29721;DHT22;23665;51.044;3.748;2022-11-20T05:59:59;7.10;99.90
29721;DHT22;23665;51.044;3.748;2022-11-20T06:02:25;7.10;99.90
29721;DHT22;23665;51.044;3.748;2022-11-20T06:04:50;7.10;99.90
29721;DHT22;23665;51.044;3.748;2022-11-20T06:07:16;7.00;99.90
29721;DHT22;23665;51.044;3.748;2022-11-20T06:09:41;7.00;99.90
29721;DHT22;23665;51.044;3.748;2022-11-20T06:12:07;7.00;99.90
29721;DHT22;23665;51.044;3.748;2022-11-20T06:14:33;7.00;99.90
29721;DHT22;23665;51.044;3.748;2022-11-20T06:16:59;7.10;99.90
29721;DHT22;23665;51.044;3.748;2022-11-20T06:19:25;7.20;99.90
29721;DHT22;23665;51.044;3.748;2022-11-20T06:21:51;7.00;99.90
29721;DHT22;23665;51.044;3.748;2022-11-20T06:24:17;7.10;99.90
29721;DHT22;23665;51.044;3.748;2022-11-20T06:26:42;7.10;99.90
29721;DHT22;23665;51.044;3.748;2022-11-20T06:29:08;7.30;99.90
29721;DHT22;23665;51.044;3.748;2022-11-20T06:31:33;7.20;99.90
29721;DHT22;23665;51.044;3.748;2022-11-20T06:34:03;7.20;99.90
29721;DHT22;23665;51.044;3.748;2022-11-20T06:36:30;7.20;99.90
29721;DHT22;23665;51.044;3.748;2022-11-20T06:38:55;7.20;99.90
29721;DHT22;23665;51.044;3.748;2022-11-20T06:41:22;7.20;99.90
29721;DHT22;23665;51.044;3.748;2022-11-20T06:43:48;7.20;99.90
29721;DHT22;23665;51.044;3.748;2022-11-20T06:46:15;7.20;99.90
29721;DHT22;23665;51.044;3.748;2022-11-20T06:48:45;7.40;99.90
29721;DHT22;23665;51.044;3.748;2022-11-20T06:51:10;7.40;99.90
29721;DHT22;23665;51.044;3.748;2022-11-20T06:53:37;7.30;99.90
29721;DHT22;23665;51.044;3.748;2022-11-20T06:56:03;7.20;99.90
29721;DHT22;23665;51.044;3.748;2022-11-20T06:58:31;7.30;99.90
29721;DHT22;23665;51.044;3.748;2022-11-20T07:01:10;7.30;99.90
29721;DHT22;23665;51.044;3.748;2022-11-20T07:03:36;7.30;99.90
29721;DHT22;23665;51.044;3.748;2022-11-20T07:06:03;7.30;99.90
29721;DHT22;23665;51.044;3.748;2022-11-20T07:08:29;7.30;99.90
29721;DHT22;23665;51.044;3.748;2022-11-20T07:11:05;7.50;99.90
29721;DHT22;23665;51.044;3.748;2022-11-20T07:13:31;7.50;99.90
29721;DHT22;23665;51.044;3.748;2022-11-20T07:16:06;7.30;99.90
29721;DHT22;23665;51.044;3.748;2022-11-20T07:18:32;7.30;99.90
29721;DHT22;23665;51.044;3.748;2022-11-20T07:21:05;7.40;99.90
29721;DHT22;23665;51.044;3.748;2022-11-20T07:23:32;7.50;99.90
29721;DHT22;23665;51.044;3.748;2022-11-20T07:25:58;7.50;99.90
29721;DHT22;23665;51.044;3.748;2022-11-20T07:28:23;7.50;99.90
29721;DHT22;23665;51.044;3.748;2022-11-20T07:30:50;7.60;99.90
29721;DHT22;23665;51.044;3.748;2022-11-20T07:33:16;7.60;99.90
29721;DHT22;23665;51.044;3.748;2022-11-20T07:35:42;7.60;99.90
29721;DHT22;23665;51.044;3.748;2022-11-20T07:38:08;7.70;99.90
29721;DHT22;23665;51.044;3.748;2022-11-20T07:40:33;7.60;99.90
29721;DHT22;23665;51.044;3.748;2022-11-20T07:42:59;7.60;99.90
29721;DHT22;23665;51.044;3.748;2022-11-20T07:45:24;7.70;99.90
29721;DHT22;23665;51.044;3.748;2022-11-20T07:47:50;7.50;99.90
29721;DHT22;23665;51.044;3.748;2022-11-20T07:50:17;7.50;99.90
29721;DHT22;23665;51.044;3.748;2022-11-20T07:52:45;7.50;99.90
29721;DHT22;23665;51.044;3.748;2022-11-20T07:55:12;7.70;99.90
29721;DHT22;23665;51.044;3.748;2022-11-20T07:57:38;7.50;99.90
29721;DHT22;23665;51.044;3.748;2022-11-20T08:00:05;7.70;99.90
29721;DHT22;23665;51.044;3.748;2022-11-20T08:02:31;7.80;99.90
29721;DHT22;23665;51.044;3.748;2022-11-20T08:04:56;7.70;99.90
29721;DHT22;23665;51.044;3.748;2022-11-20T08:07:22;7.70;99.90
29721;DHT22;23665;51.044;3.748;2022-11-20T08:09:48;7.70;99.90
29721;DHT22;23665;51.044;3.748;2022-11-20T08:12:20;7.80;99.90
29721;DHT22;23665;51.044;3.748;2022-11-20T08:15:05;7.80;99.90
29721;DHT22;23665;51.044;3.748;2022-11-20T08:17:31;7.80;99.90
29721;DHT22;23665;51.044;3.748;2022-11-20T08:19:57;7.90;99.90
29721;DHT22;23665;51.044;3.748;2022-11-20T08:22:23;8.00;99.90
29721;DHT22;23665;51.044;3.748;2022-11-20T08:24:50;7.90;99.90
29721;DHT22;23665;51.044;3.748;2022-11-20T08:27:15;7.70;99.90
29721;DHT22;23665;51.044;3.748;2022-11-20T08:29:41;7.70;99.90
29721;DHT22;23665;51.044;3.748;2022-11-20T08:32:07;7.80;99.90
29721;DHT22;23665;51.044;3.748;2022-11-20T08:34:32;7.80;99.90
29721;DHT22;23665;51.044;3.748;2022-11-20T08:36:58;7.80;99.90
29721;DHT22;23665;51.044;3.748;2022-11-20T08:39:24;7.90;99.90
29721;DHT22;23665;51.044;3.748;2022-11-20T08:41:49;8.00;99.90
29721;DHT22;23665;51.044;3.748;2022-11-20T08:44:15;8.00;99.90
29721;DHT22;23665;51.044;3.748;2022-11-20T08:46:41;8.10;99.90
29721;DHT22;23665;51.044;3.748;2022-11-20T08:49:10;7.90;99.90
29721;DHT22;23665;51.044;3.748;2022-11-20T08:51:37;7.90;99.90
29721;DHT22;23665;51.044;3.748;2022-11-20T08:54:04;8.20;99.90
29721;DHT22;23665;51.044;3.748;2022-11-20T08:56:30;8.10;99.90
29721;DHT22;23665;51.044;3.748;2022-11-20T08:58:56;8.00;99.90
29721;DHT22;23665;51.044;3.748;2022-11-20T09:01:22;8.10;99.90
29721;DHT22;23665;51.044;3.748;2022-11-20T09:03:48;8.00;99.90
29721;DHT22;23665;51.044;3.748;2022-11-20T09:06:15;8.10;99.90
29721;DHT22;23665;51.044;3.748;2022-11-20T09:08:41;8.00;99.90
29721;DHT22;23665;51.044;3.748;2022-11-20T09:11:07;9.00;99.90
29721;DHT22;23665;51.044;3.748;2022-11-20T09:13:34;9.80;99.90
29721;DHT22;23665;51.044;3.748;2022-11-20T09:16:02;9.80;99.90
29721;DHT22;23665;51.044;3.748;2022-11-20T09:18:29;10.30;99.90
29721;DHT22;23665;51.044;3.748;2022-11-20T09:21:01;11.00;99.90
29721;DHT22;23665;51.044;3.748;2022-11-20T09:23:27;12.00;99.90
29721;DHT22;23665;51.044;3.748;2022-11-20T09:25:56;13.20;99.90
29721;DHT22;23665;51.044;3.748;2022-11-20T09:28:25;14.80;99.90
29721;DHT22;23665;51.044;3.748;2022-11-20T09:30:51;15.40;99.90
29721;DHT22;23665;51.044;3.748;2022-11-20T09:33:17;15.20;99.90
29721;DHT22;23665;51.044;3.748;2022-11-20T09:35:43;14.90;99.90
29721;DHT22;23665;51.044;3.748;2022-11-20T09:38:10;14.50;99.90
29721;DHT22;23665;51.044;3.748;2022-11-20T09:40:39;15.50;99.90
29721;DHT22;23665;51.044;3.748;2022-11-20T09:43:21;16.60;99.90
29721;DHT22;23665;51.044;3.748;2022-11-20T09:46:01;16.70;99.90
29721;DHT22;23665;51.044;3.748;2022-11-20T09:48:53;16.90;99.90
29721;DHT22;23665;51.044;3.748;2022-11-20T09:56:39;13.40;99.90
29721;DHT22;23665;51.044;3.748;2022-11-20T09:59:08;12.30;99.90
29721;DHT22;23665;51.044;3.748;2022-11-20T10:01:38;11.50;99.90
29721;DHT22;23665;51.044;3.748;2022-11-20T10:04:20;10.90;99.90
29721;DHT22;23665;51.044;3.748;2022-11-20T10:07:07;10.70;99.90
29721;DHT22;23665;51.044;3.748;2022-11-20T10:09:40;10.70;99.90
29721;DHT22;23665;51.044;3.748;2022-11-20T10:12:48;10.80;99.90
29721;DHT22;23665;51.044;3.748;2022-11-20T10:15:38;10.80;99.90
29721;DHT22;23665;51.044;3.748;2022-11-20T10:25:57;10.40;99.90
29721;DHT22;23665;51.044;3.748;2022-11-20T10:31:08;10.50;99.90
29721;DHT22;23665;51.044;3.748;2022-11-20T10:33:41;10.60;99.90
29721;DHT22;23665;51.044;3.748;2022-11-20T10:36:14;10.70;99.90
29721;DHT22;23665;51.044;3.748;2022-11-20T10:38:54;10.80;99.90
29721;DHT22;23665;51.044;3.748;2022-11-20T10:41:28;10.60;99.90
29721;DHT22;23665;51.044;3.748;2022-11-20T10:44:00;10.70;99.90
29721;DHT22;23665;51.044;3.748;2022-11-20T10:46:52;10.80;99.90
29721;DHT22;23665;51.044;3.748;2022-11-20T10:49:19;10.70;99.90
29721;DHT22;23665;51.044;3.748;2022-11-20T10:51:58;10.50;99.90
29721;DHT22;23665;51.044;3.748;2022-11-20T11:00:33;10.30;99.90
29721;DHT22;23665;51.044;3.748;2022-11-20T11:02:59;10.30;99.90
29721;DHT22;23665;51.044;3.748;2022-11-20T11:08:10;10.30;99.90
29721;DHT22;23665;51.044;3.748;2022-11-20T11:11:02;10.40;99.90
29721;DHT22;23665;51.044;3.748;2022-11-20T11:13:27;10.50;99.90
29721;DHT22;23665;51.044;3.748;2022-11-20T11:15:54;10.40;99.90
29721;DHT22;23665;51.044;3.748;2022-11-20T11:20:53;10.30;99.90
29721;DHT22;23665;51.044;3.748;2022-11-20T11:23:39;10.20;99.90
29721;DHT22;23665;51.044;3.748;2022-11-20T11:26:18;10.20;99.90
29721;DHT22;23665;51.044;3.748;2022-11-20T11:28:56;10.20;99.90
29721;DHT22;23665;51.044;3.748;2022-11-20T11:31:30;10.20;99.90
29721;DHT22;23665;51.044;3.748;2022-11-20T11:34:13;10.10;99.90
29721;DHT22;23665;51.044;3.748;2022-11-20T11:36:40;10.00;99.90
29721;DHT22;23665;51.044;3.748;2022-11-20T11:39:16;10.00;99.90
29721;DHT22;23665;51.044;3.748;2022-11-20T11:41:43;10.10;99.90
29721;DHT22;23665;51.044;3.748;2022-11-20T11:46:59;10.10;99.90
29721;DHT22;23665;51.044;3.748;2022-11-20T11:49:24;10.00;99.90
29721;DHT22;23665;51.044;3.748;2022-11-20T11:54:38;9.90;99.90
29721;DHT22;23665;51.044;3.748;2022-11-20T12:00:08;9.70;99.90
29721;DHT22;23665;51.044;3.748;2022-11-20T12:07:49;9.60;99.90
29721;DHT22;23665;51.044;3.748;2022-11-20T12:13:19;9.60;99.90
29721;DHT22;23665;51.044;3.748;2022-11-20T12:15:47;9.60;99.90
29721;DHT22;23665;51.044;3.748;2022-11-20T12:18:21;9.60;99.90
29721;DHT22;23665;51.044;3.748;2022-11-20T12:21:17;9.70;99.90
29721;DHT22;23665;51.044;3.748;2022-11-20T12:23:57;9.70;99.90
29721;DHT22;23665;51.044;3.748;2022-11-20T12:29:40;9.60;99.90
29721;DHT22;23665;51.044;3.748;2022-11-20T12:42:54;9.60;99.90
29721;DHT22;23665;51.044;3.748;2022-11-20T12:48:41;9.70;99.90
29721;DHT22;23665;51.044;3.748;2022-11-20T12:51:20;9.70;99.90
29721;DHT22;23665;51.044;3.748;2022-11-20T13:07:58;9.50;99.90
29721;DHT22;23665;51.044;3.748;2022-11-20T13:13:16;9.40;99.90
29721;DHT22;23665;51.044;3.748;2022-11-20T13:15:54;9.40;99.90
29721;DHT22;23665;51.044;3.748;2022-11-20T13:18:21;9.40;99.90
29721;DHT22;23665;51.044;3.748;2022-11-20T13:20:47;9.40;99.90
29721;DHT22;23665;51.044;3.748;2022-11-20T13:23:27;9.40;99.90
29721;DHT22;23665;51.044;3.748;2022-11-20T13:26:24;9.40;99.90
29721;DHT22;23665;51.044;3.748;2022-11-20T13:29:25;9.30;99.90
29721;DHT22;23665;51.044;3.748;2022-11-20T13:31:50;9.30;99.90
29721;DHT22;23665;51.044;3.748;2022-11-20T13:34:27;9.40;99.90
29721;DHT22;23665;51.044;3.748;2022-11-20T13:36:55;9.50;99.90
29721;DHT22;23665;51.044;3.748;2022-11-20T13:39:26;9.60;99.90
29721;DHT22;23665;51.044;3.748;2022-11-20T13:41:57;9.50;99.90
29721;DHT22;23665;51.044;3.748;2022-11-20T13:44:34;9.40;99.90
29721;DHT22;23665;51.044;3.748;2022-11-20T13:47:03;9.40;99.90
29721;DHT22;23665;51.044;3.748;2022-11-20T13:49:39;9.40;99.90
29721;DHT22;23665;51.044;3.748;2022-11-20T13:55:26;9.50;99.90
29721;DHT22;23665;51.044;3.748;2022-11-20T13:58:10;9.50;99.90
29721;DHT22;23665;51.044;3.748;2022-11-20T14:01:08;9.60;99.90
29721;DHT22;23665;51.044;3.748;2022-11-20T14:03:33;9.60;99.90
29721;DHT22;23665;51.044;3.748;2022-11-20T14:06:03;9.60;99.90
29721;DHT22;23665;51.044;3.748;2022-11-20T14:08:39;9.60;99.90
29721;DHT22;23665;51.044;3.748;2022-11-20T14:11:37;9.60;99.90
29721;DHT22;23665;51.044;3.748;2022-11-20T14:14:17;9.80;99.90
29721;DHT22;23665;51.044;3.748;2022-11-20T14:16:47;9.90;99.90
29721;DHT22;23665;51.044;3.748;2022-11-20T14:21:51;10.20;99.90
29721;DHT22;23665;51.044;3.748;2022-11-20T14:24:24;10.40;99.90
29721;DHT22;23665;51.044;3.748;2022-11-20T14:26:51;10.40;99.90
29721;DHT22;23665;51.044;3.748;2022-11-20T14:29:20;10.40;99.90
29721;DHT22;23665;51.044;3.748;2022-11-20T14:31:50;10.40;99.90
29721;DHT22;23665;51.044;3.748;2022-11-20T14:34:20;10.50;99.90
29721;DHT22;23665;51.044;3.748;2022-11-20T14:36:47;10.50;99.90
29721;DHT22;23665;51.044;3.748;2022-11-20T14:39:37;10.60;99.90
29721;DHT22;23665;51.044;3.748;2022-11-20T14:42:16;10.70;99.90
29721;DHT22;23665;51.044;3.748;2022-11-20T14:44:43;10.80;99.90
29721;DHT22;23665;51.044;3.748;2022-11-20T14:47:15;11.00;99.90
29721;DHT22;23665;51.044;3.748;2022-11-20T14:49:43;11.10;99.90
29721;DHT22;23665;51.044;3.748;2022-11-20T14:52:15;11.00;99.90
29721;DHT22;23665;51.044;3.748;2022-11-20T14:54:52;11.00;99.90
29721;DHT22;23665;51.044;3.748;2022-11-20T14:57:29;11.00;99.90
29721;DHT22;23665;51.044;3.748;2022-11-20T15:02:41;11.00;99.90
29721;DHT22;23665;51.044;3.748;2022-11-20T15:05:07;10.80;99.90
29721;DHT22;23665;51.044;3.748;2022-11-20T15:07:39;10.80;99.90
29721;DHT22;23665;51.044;3.748;2022-11-20T15:12:50;10.80;99.90
29721;DHT22;23665;51.044;3.748;2022-11-20T15:17:46;10.80;99.90
29721;DHT22;23665;51.044;3.748;2022-11-20T15:20:15;10.80;99.90
29721;DHT22;23665;51.044;3.748;2022-11-20T15:22:41;10.90;99.90
29721;DHT22;23665;51.044;3.748;2022-11-20T15:25:15;10.90;99.90
29721;DHT22;23665;51.044;3.748;2022-11-20T15:27:42;10.90;99.90
29721;DHT22;23665;51.044;3.748;2022-11-20T15:30:14;10.80;99.90
29721;DHT22;23665;51.044;3.748;2022-11-20T15:32:40;10.80;99.90
29721;DHT22;23665;51.044;3.748;2022-11-20T15:35:07;10.70;99.90
29721;DHT22;23665;51.044;3.748;2022-11-20T15:37:33;10.70;99.90
29721;DHT22;23665;51.044;3.748;2022-11-20T15:39:59;10.60;99.90
29721;DHT22;23665;51.044;3.748;2022-11-20T15:42:25;10.50;99.90
29721;DHT22;23665;51.044;3.748;2022-11-20T15:44:50;10.60;99.90
29721;DHT22;23665;51.044;3.748;2022-11-20T15:47:16;10.50;99.90
29721;DHT22;23665;51.044;3.748;2022-11-20T15:49:43;10.50;99.90
29721;DHT22;23665;51.044;3.748;2022-11-20T15:52:09;10.50;99.90
29721;DHT22;23665;51.044;3.748;2022-11-20T15:54:35;10.50;99.90
29721;DHT22;23665;51.044;3.748;2022-11-20T15:57:00;10.50;99.90
29721;DHT22;23665;51.044;3.748;2022-11-20T15:59:28;10.40;99.90
29721;DHT22;23665;51.044;3.748;2022-11-20T16:01:53;10.40;99.90
29721;DHT22;23665;51.044;3.748;2022-11-20T16:04:19;10.40;99.90
29721;DHT22;23665;51.044;3.748;2022-11-20T16:06:45;10.50;99.90
29721;DHT22;23665;51.044;3.748;2022-11-20T16:09:10;10.40;99.90
29721;DHT22;23665;51.044;3.748;2022-11-20T16:11:36;10.40;99.90
29721;DHT22;23665;51.044;3.748;2022-11-20T16:14:03;10.50;99.90
29721;DHT22;23665;51.044;3.748;2022-11-20T16:16:48;10.40;99.90
29721;DHT22;23665;51.044;3.748;2022-11-20T16:19:14;10.30;99.90
29721;DHT22;23665;51.044;3.748;2022-11-20T16:21:41;10.20;99.90
29721;DHT22;23665;51.044;3.748;2022-11-20T16:24:12;10.20;99.90
29721;DHT22;23665;51.044;3.748;2022-11-20T16:26:38;10.30;99.90
29721;DHT22;23665;51.044;3.748;2022-11-20T16:29:05;10.50;99.90
29721;DHT22;23665;51.044;3.748;2022-11-20T16:31:32;10.50;99.90
29721;DHT22;23665;51.044;3.748;2022-11-20T16:34:00;10.70;99.90
29721;DHT22;23665;51.044;3.748;2022-11-20T16:36:27;10.70;99.90
29721;DHT22;23665;51.044;3.748;2022-11-20T16:39:03;10.80;99.90
29721;DHT22;23665;51.044;3.748;2022-11-20T16:41:31;10.80;99.90
29721;DHT22;23665;51.044;3.748;2022-11-20T16:43:59;10.80;99.90
29721;DHT22;23665;51.044;3.748;2022-11-20T16:46:30;10.90;99.90
29721;DHT22;23665;51.044;3.748;2022-11-20T16:49:00;11.00;99.90
29721;DHT22;23665;51.044;3.748;2022-11-20T16:51:28;11.00;99.90
29721;DHT22;23665;51.044;3.748;2022-11-20T16:53:54;10.90;99.90
29721;DHT22;23665;51.044;3.748;2022-11-20T16:56:23;10.50;99.90
29721;DHT22;23665;51.044;3.748;2022-11-20T16:58:49;10.40;99.90
29721;DHT22;23665;51.044;3.748;2022-11-20T17:01:17;10.40;99.90
29721;DHT22;23665;51.044;3.748;2022-11-20T17:03:46;10.50;99.90
29721;DHT22;23665;51.044;3.748;2022-11-20T17:06:20;10.60;99.90
29721;DHT22;23665;51.044;3.748;2022-11-20T17:08:47;10.60;99.90
29721;DHT22;23665;51.044;3.748;2022-11-20T17:11:15;10.50;99.90
29721;DHT22;23665;51.044;3.748;2022-11-20T17:13:41;10.60;99.90
29721;DHT22;23665;51.044;3.748;2022-11-20T17:16:10;10.70;99.90
29721;DHT22;23665;51.044;3.748;2022-11-20T17:18:36;10.60;99.90
29721;DHT22;23665;51.044;3.748;2022-11-20T17:21:03;10.60;99.90
29721;DHT22;23665;51.044;3.748;2022-11-20T17:23:35;10.50;99.90
29721;DHT22;23665;51.044;3.748;2022-11-20T17:26:07;10.30;99.90
29721;DHT22;23665;51.044;3.748;2022-11-20T17:28:33;10.30;99.90
29721;DHT22;23665;51.044;3.748;2022-11-20T17:31:15;10.20;99.90
29721;DHT22;23665;51.044;3.748;2022-11-20T17:33:43;10.30;99.90
29721;DHT22;23665;51.044;3.748;2022-11-20T17:36:12;10.30;99.90